Flight Track Log - Related Links

Times and Time Zones

All times are in EDT time to prevent confusion due to time zone crossing. See the ASQ5678 flight status page for this flight to view local times or setup timezone preferences in your user account.

Time Position Orientation Groundspeed Altitude Reporting Facility
EDT Latitude Longitude Course Direction KTS MPH feet Rate Location/Type
Fri 12:48:24 PM 29.9756 -95.3347 328° Northwest 155 178 900  Level Houston Center
Fri 12:49:20 PM 30.0094 -95.3594 328° Northwest 194 223 2,800 1,636 Climbing Houston Center
Fri 12:50:14 PM 30.0592 -95.3428 16° North 232 267 3,900 569 Climbing Houston Center
Fri 12:51:16 PM 30.1133 -95.3064 30° Northeast 226 260 3,900  Level Houston Center
Fri 12:52:18 PM 30.1692 -95.2692 30° Northeast 230 265 3,900 1,403 Level Houston Center
Fri 12:53:20 PM 30.2292 -95.2733 357° North 215 247 6,800 2,613 Climbing Houston Center
Fri 12:54:22 PM 30.2944 -95.2739 360° North 231 266 9,300 1,984 Climbing Houston Center
Fri 12:55:24 PM 30.3714 -95.3150 335° Northwest 269 310 10,900 1,452 Climbing Houston Center
Fri 12:56:26 PM 30.4381 -95.3639 328° Northwest 304 350 12,300 1,694 Climbing Houston Center
Fri 12:57:28 PM 30.5192 -95.4264 326° Northwest 318 366 14,400 1,935 Climbing Houston Center
Fri 12:58:30 PM 30.5928 -95.4814 327° Northwest 317 365 16,300 1,632 Climbing Houston Center
Fri 12:59:33 PM 30.6939 -95.5114 346° North 335 386 17,800 1,296 Climbing Houston Center
Fri 01:00:35 PM 30.7900 -95.5333 349° North 345 397 19,000 1,016 Climbing Houston Center
Fri 01:01:37 PM 30.8908 -95.5553 349° North 362 417 19,900 484 Climbing Houston Center
Fri 01:02:39 PM 30.9975 -95.5800 349° North 383 441 20,000 48 Climbing Houston Center
Fri 01:03:41 PM 31.1075 -95.6042 349° North 396 456 20,000  Level Houston Center
Fri 01:04:27 PM 31.1944 -95.6261 348° North 395 455 20,000  Level Fort Worth Center
Fri 01:05:27 PM 31.3053 -95.6506 349° North 403 464 20,000  Level Fort Worth Center
Fri 01:06:27 PM 31.4061 -95.6950 339° North 384 442 20,000  Level Fort Worth Center
Fri 01:07:27 PM 31.4989 -95.7567 330° Northwest 379 436 20,000  Level Fort Worth Center
Fri 01:08:27 PM 31.5872 -95.8136 331° Northwest 379 436 20,000 -645 Level Fort Worth Center
Fri 01:09:28 PM 31.6819 -95.8778 330° Northwest 379 436 18,700 -1,100 Descending Fort Worth Center
Fri 01:10:27 PM 31.7747 -95.9447 328° Northwest 373 429 17,800 -1,361 Descending Fort Worth Center
Fri 01:11:27 PM 31.8589 -95.9997 331° Northwest 356 410 16,000 -942 Descending Fort Worth Center
Fri 01:12:28 PM 31.9408 -96.0522 331° Northwest 345 397 15,900 -50 Descending Fort Worth Center
Fri 01:13:27 PM 32.0269 -96.1097 330° Northwest 345 397 15,900 -1,008 Level Fort Worth Center
Fri 01:14:27 PM 32.1069 -96.1625 331° Northwest 345 397 13,900 -2,231 Descending Fort Worth Center
Fri 01:15:28 PM 32.1825 -96.2156 329° Northwest 333 383 11,400 -1,650 Descending Fort Worth Center
Fri 01:16:27 PM 32.2497 -96.2564 333° Northwest 303 349 10,600 -1,008 Descending Fort Worth Center
Fri 01:17:27 PM 32.3169 -96.2972 333° Northwest 261 300 9,400 -793 Descending Fort Worth Center
Fri 01:18:28 PM 32.3672 -96.3261 334° Northwest 228 262 9,000 -942 Descending Fort Worth Center
Fri 01:19:28 PM 32.4283 -96.3650 332° Northwest 222 255 7,500 -1,361 Descending Fort Worth Center
Fri 01:20:27 PM 32.4703 -96.4086 319° Northwest 222 255 6,300 -1,150 Descending Fort Worth Center
Fri 01:21:28 PM 32.5167 -96.4650 314° West 222 255 5,200 -950 Descending Fort Worth Center
Fri 01:22:27 PM 32.5567 -96.5114 316° Northwest 222 255 4,400 -605 Descending Fort Worth Center
Fri 01:23:27 PM 32.6031 -96.5650 316° Northwest 222 255 4,000 -645 Descending Fort Worth Center
Fri 01:24:28 PM 32.6450 -96.6117 317° Northwest 217 250 3,100 -750 Descending Fort Worth Center
Fri 01:25:27 PM 32.6872 -96.6606 316° Northwest 217 250 2,500 -456 Descending Fort Worth Center
Fri 01:25:47 PM 32.7000 -96.6667 338° Northwest 213 245 2,500 -140 Level Dallas / Fort Worth TRACON
Fri 01:26:53 PM 32.7500 -96.7167 320° Northwest 201 231 2,300 -150 Descending Dallas / Fort Worth TRACON
Fri 01:27:47 PM 32.7833 -96.7667 308° West 191 220 2,200 -421 Descending Dallas / Fort Worth TRACON
Fri 01:28:47 PM 32.8000 -96.8000 301° West 110 127 1,500 -619 Descending Dallas / Fort Worth TRACON
Fri 01:29:53 PM 32.8333 -96.8333 320° Northwest 118 136 900 -545 Descending Dallas / Fort Worth TRACON
Fri 01:32:00 PM 32.8333 -96.8500 301° West  Level FlightAware Approximate

Login

Don't have an account? Register now (free) for customized features, flight alerts, and more!